LCLK/LCA METAR and TAF weather

Enter ICAO airport designator
Station Type Date Time Source
LCLK METAR 2021/05/17 21:30 UTC NOAA

LCLK 172130Z 01008KT CAVOK 21/16 Q1011 NOSIG


Station Type Date Time Source
LCLK Decoded METAR 2021/05/17 21:30 UTC NOAA

Larnaca Airport, Cyprus (LCLK) 34-53N 033-38E 2M
May 17, 2021 - 05:30 PM EDT / 2021.05.17 2130 UTC
Wind: from the N (010 degrees) at 9 MPH (8 KT):0
Visibility: greater than 7 mile(s):0
Temperature: 69 F (21 C)
Dew Point: 60 F (16 C)
Relative Humidity: 73%
Pressure (altimeter): 29.85 in. Hg (1011 hPa)
ob: LCLK 172130Z 01008KT CAVOK 21/16 Q1011 NOSIG
cycle: 21

Station Type Date Time Source
LCLK TAF 2021/05/17 18:31 UTC NOAA

TAF LCLK 171730Z 1718/1818 32009KT 9999 FEW020 PROB30
TEMPO 1800/1805 5000 BR BKN005
BECMG 1809/1812 22015KT

Example: see airport list